Time;durP1;ratioP1;P1;durP2;ratioP2;P2;SDS_P1;SDS_P2;PMS_P1;PMS_P2;Temp;Humidity;BMP_temperature;BMP_pressure;BME280_temperature;BME280_humidity;BME280_pressure;Samples;Min_cycle;Max_cycle;Signal;HPM_P1;HPM_P2
2021/10/23 00:01:40;;;;;;;3.47;1.10;;;;;;;6.27;62.94;98579.31;4992235;28;20042;-63
2021/10/23 00:04:05;;;;;;;2.33;1.47;;;;;;;6.33;62.84;98578.56;4992445;28;20124;-64
2021/10/23 00:06:31;;;;;;;4.10;1.57;;;;;;;6.21;62.80;98571.13;4992257;28;20108;-65
2021/10/23 00:08:56;;;;;;;4.77;1.53;;;;;;;6.35;63.22;98593.22;4991003;28;20034;-64
2021/10/23 00:11:23;;;;;;;3.17;1.60;;;;;;;6.26;63.59;98581.13;5007000;28;20643;-66
2021/10/23 00:13:48;;;;;;;6.27;1.63;;;;;;;6.19;63.22;98567.03;4993567;28;20046;-66
2021/10/23 00:16:14;;;;;;;2.67;1.50;;;;;;;6.12;62.93;98574.09;4992884;28;20105;-64
2021/10/23 00:18:39;;;;;;;3.80;1.20;;;;;;;6.20;63.13;98587.19;4994908;28;20429;-64
2021/10/23 00:21:05;;;;;;;1.93;1.17;;;;;;;6.22;62.67;98593.91;4995571;28;20042;-63
2021/10/23 00:23:30;;;;;;;2.63;1.07;;;;;;;6.21;63.42;98596.75;4995403;28;20494;-64
2021/10/23 00:25:56;;;;;;;2.43;1.10;;;;;;;6.25;63.60;98613.03;5010429;28;20081;-66
2021/10/23 00:28:21;;;;;;;2.13;1.10;;;;;;;6.24;63.19;98614.88;4995978;28;20518;-65
2021/10/23 00:30:47;;;;;;;4.00;1.23;;;;;;;6.29;63.45;98620.41;4994199;28;20054;-65
2021/10/23 00:33:12;;;;;;;2.53;1.00;;;;;;;6.21;63.13;98608.13;4996183;28;20036;-63
2021/10/23 00:35:38;;;;;;;3.10;1.10;;;;;;;6.23;64.24;98629.09;4996142;28;20070;-64
2021/10/23 00:38:04;;;;;;;3.00;1.07;;;;;;;5.97;63.46;98578.59;4995798;28;20045;-63
2021/10/23 00:40:30;;;;;;;3.07;1.37;;;;;;;6.26;63.65;98627.91;4995126;28;20150;-62
2021/10/23 00:42:56;;;;;;;2.70;1.10;;;;;;;6.04;64.03;98597.97;4995228;28;20045;-65
2021/10/23 00:45:22;;;;;;;5.10;1.00;;;;;;;6.08;64.04;98618.56;4995501;28;20030;-63
2021/10/23 00:47:48;;;;;;;1.27;0.80;;;;;;;6.19;64.07;98641.03;4995141;28;20077;-64
2021/10/23 00:50:14;;;;;;;2.07;0.80;;;;;;;6.12;64.15;98632.22;4993899;28;20080;-65
2021/10/23 00:52:39;;;;;;;2.97;1.87;;;;;;;6.10;63.73;98636.88;4995244;28;20034;-64
2021/10/23 00:55:09;;;;;;;5.60;2.03;;;;;;;6.13;63.93;98653.19;4994851;28;20514;-66
2021/10/23 00:57:34;;;;;;;5.40;1.00;;;;;;;5.73;64.48;98593.72;4994014;28;20030;-64
2021/10/23 01:00:00;;;;;;;4.50;1.00;;;;;;;6.05;64.77;98653.28;4995235;28;20461;-64
2021/10/23 01:02:26;;;;;;;3.30;1.10;;;;;;;6.01;64.42;98640.63;4995285;28;20074;-64
2021/10/23 01:04:51;;;;;;;4.00;2.37;;;;;;;6.07;64.99;98653.09;4995992;28;20073;-63
2021/10/23 01:07:17;;;;;;;3.87;1.20;;;;;;;6.06;64.61;98652.25;4995321;28;20045;-64
2021/10/23 01:09:44;;;;;;;2.13;1.00;;;;;;;6.12;64.41;98658.66;4995104;28;20034;-65
2021/10/23 01:12:12;;;;;;;2.93;1.20;;;;;;;5.96;65.82;98648.28;4995334;28;20212;-65
2021/10/23 01:14:43;;;;;;;2.88;0.88;;;;;;;6.18;67.26;98693.09;4995382;28;20065;-63
2021/10/23 01:17:09;;;;;;;2.27;1.30;;;;;;;5.95;67.50;98668.59;4995191;28;20506;-64
2021/10/23 01:19:35;;;;;;;7.07;1.47;;;;;;;6.05;67.84;98686.81;4995270;28;20042;-63
2021/10/23 01:22:01;;;;;;;3.13;1.13;;;;;;;5.99;68.32;98691.00;4994470;28;20099;-65
2021/10/23 01:24:27;;;;;;;1.40;1.00;;;;;;;5.93;69.67;98693.56;4994969;28;20038;-64
2021/10/23 01:26:52;;;;;;;4.17;1.40;;;;;;;5.83;70.53;98689.34;4994973;28;20034;-64
2021/10/23 01:29:19;;;;;;;5.40;1.73;;;;;;;5.63;71.31;98682.16;4994953;28;20038;-64
2021/10/23 01:31:46;;;;;;;3.67;1.87;;;;;;;5.66;71.35;98713.47;4995121;28;20050;-64
2021/10/23 01:34:13;;;;;;;1.17;1.07;;;;;;;5.60;72.13;98723.78;4994855;28;20061;-64
2021/10/23 01:36:45;;;;;;;2.00;1.50;;;;;;;5.63;72.30;98719.13;4994675;28;20034;-64
2021/10/23 01:39:11;;;;;;;2.67;1.23;;;;;;;5.58;72.34;98723.13;4994815;28;20042;-64
2021/10/23 01:41:39;;;;;;;4.03;1.83;;;;;;;5.66;71.80;98727.50;4994664;28;20031;-64
2021/10/23 01:44:06;;;;;;;1.43;0.90;;;;;;;5.64;72.84;98732.16;4995044;28;20034;-64
2021/10/23 01:46:31;;;;;;;1.97;0.97;;;;;;;5.60;73.61;98736.16;4994552;28;20034;-64
2021/10/23 01:48:57;;;;;;;1.83;1.33;;;;;;;5.48;73.08;98727.00;4994430;28;20120;-65
2021/10/23 01:51:22;;;;;;;2.23;1.87;;;;;;;5.58;74.33;98740.78;4993921;28;20038;-64
2021/10/23 01:53:48;;;;;;;2.90;1.27;;;;;;;5.53;74.85;98743.16;4993984;28;20087;-63
2021/10/23 01:56:13;;;;;;;2.50;1.47;;;;;;;5.44;75.51;98754.78;4994046;28;20037;-63
2021/10/23 01:58:38;;;;;;;1.67;1.40;;;;;;;5.42;75.21;98764.69;4994047;28;20088;-65
2021/10/23 02:01:04;;;;;;;2.53;1.67;;;;;;;5.36;75.85;98766.22;4993876;28;20547;-63
2021/10/23 02:03:29;;;;;;;2.70;1.03;;;;;;;5.28;75.91;98755.75;4994590;28;20045;-64
2021/10/23 02:05:55;;;;;;;2.63;1.40;;;;;;;5.30;76.31;98761.66;4994453;28;20437;-63
2021/10/23 02:08:21;;;;;;;2.87;1.53;;;;;;;5.31;76.70;98767.75;4993147;28;20049;-65
2021/10/23 02:10:47;;;;;;;3.73;1.20;;;;;;;5.28;76.84;98764.47;4994305;28;20053;-64
2021/10/23 02:13:12;;;;;;;2.90;1.27;;;;;;;5.29;77.25;98774.03;4994720;28;20483;-65
2021/10/23 02:15:38;;;;;;;5.43;1.83;;;;;;;5.30;76.54;98772.22;4993931;28;20142;-64
2021/10/23 02:18:03;;;;;;;2.80;1.10;;;;;;;5.31;77.04;98780.97;4993478;28;20034;-63
2021/10/23 02:20:34;;;;;;;1.27;1.10;;;;;;;5.27;75.89;98770.75;4993629;28;20039;-67
2021/10/23 02:23:00;;;;;;;4.23;1.87;;;;;;;5.18;75.40;98763.88;4993712;28;20036;-64
2021/10/23 02:25:26;;;;;;;1.93;1.40;;;;;;;5.18;75.93;98778.91;4993440;28;20593;-65
2021/10/23 02:27:52;;;;;;;2.80;1.37;;;;;;;5.13;76.38;98784.72;4992249;28;20521;-66
2021/10/23 02:30:17;;;;;;;4.97;1.67;;;;;;;5.13;76.25;98787.34;4993246;28;20043;-64
2021/10/23 02:32:43;;;;;;;3.03;1.20;;;;;;;5.17;75.49;98801.81;4993202;28;20034;-66
2021/10/23 02:35:08;;;;;;;1.20;0.90;;;;;;;5.11;74.99;98794.63;4992836;28;20137;-64
2021/10/23 02:37:34;;;;;;;1.37;0.90;;;;;;;5.08;74.93;98800.25;4993121;28;20042;-65
2021/10/23 02:40:00;;;;;;;3.17;0.90;;;;;;;5.15;75.29;98806.47;4992862;28;20049;-64
2021/10/23 02:42:26;;;;;;;2.37;1.00;;;;;;;5.11;75.29;98810.44;4991745;28;20042;-63
2021/10/23 02:44:52;;;;;;;1.23;0.90;;;;;;;5.01;75.00;98799.31;4993205;28;20136;-64
2021/10/23 02:47:17;;;;;;;1.17;0.83;;;;;;;5.04;75.04;98809.50;4992955;28;20033;-66
2021/10/23 02:49:42;;;;;;;0.80;0.70;;;;;;;5.02;75.21;98816.78;4992733;28;20576;-63
2021/10/23 02:52:08;;;;;;;1.93;1.53;;;;;;;5.07;74.99;98821.53;4993151;28;20119;-64
2021/10/23 02:54:33;;;;;;;2.80;1.17;;;;;;;5.12;75.49;98827.91;4991849;28;20030;-64
2021/10/23 02:57:00;;;;;;;0.83;0.67;;;;;;;4.96;75.07;98796.38;4992774;28;20037;-64
2021/10/23 02:59:25;;;;;;;1.07;0.80;;;;;;;5.13;76.18;98829.56;4993128;28;20409;-64
2021/10/23 03:01:51;;;;;;;3.13;1.27;;;;;;;5.08;76.16;98821.34;4992748;28;20034;-65
2021/10/23 03:04:16;;;;;;;1.17;0.70;;;;;;;5.07;76.23;98832.91;4992772;28;20041;-65
2021/10/23 03:06:45;;;;;;;1.93;0.90;;;;;;;5.08;75.97;98846.91;4993042;28;20090;-65
2021/10/23 03:09:14;;;;;;;2.20;1.42;;;;;;;4.93;75.49;98833.66;5007833;28;20030;-64
2021/10/23 03:11:41;;;;;;;1.63;1.10;;;;;;;4.89;76.34;98837.63;4992601;28;20185;-64
2021/10/23 03:14:07;;;;;;;1.80;0.90;;;;;;;4.84;76.63;98838.13;4992809;28;20105;-66
2021/10/23 03:16:33;;;;;;;1.07;0.80;;;;;;;4.79;76.52;98842.28;4991416;28;20505;-63
2021/10/23 03:18:58;;;;;;;2.77;1.50;;;;;;;4.83;76.80;98844.41;4992880;28;20100;-64
2021/10/23 03:21:24;;;;;;;0.83;0.83;;;;;;;4.89;76.73;98848.16;4992818;28;20405;-65
2021/10/23 03:23:49;;;;;;;1.80;1.00;;;;;;;4.91;76.45;98857.56;4992634;28;20121;-64
2021/10/23 03:26:15;;;;;;;0.77;0.67;;;;;;;4.93;76.71;98862.69;4992349;28;20092;-65
2021/10/23 03:28:41;;;;;;;0.83;0.80;;;;;;;5.02;76.02;98874.81;4992312;28;20145;-64
2021/10/23 03:31:06;;;;;;;1.00;0.90;;;;;;;4.98;75.52;98868.25;4992167;28;20192;-65
2021/10/23 03:33:32;;;;;;;1.70;0.80;;;;;;;5.00;75.99;98865.44;4992291;28;20542;-63
2021/10/23 03:35:58;;;;;;;1.50;1.00;;;;;;;5.05;75.66;98871.84;4992286;28;20509;-64
2021/10/23 03:38:23;;;;;;;5.83;1.10;;;;;;;5.09;75.62;98874.94;4992349;28;20688;-63
2021/10/23 03:40:49;;;;;;;1.00;0.90;;;;;;;5.05;75.69;98884.22;4990791;28;20066;-64
2021/10/23 03:43:14;;;;;;;2.10;1.67;;;;;;;5.02;75.92;98877.47;4992113;28;20050;-64
2021/10/23 03:45:39;;;;;;;1.47;0.70;;;;;;;5.03;76.44;98887.03;4991919;28;20049;-67
2021/10/23 03:48:05;;;;;;;0.63;0.60;;;;;;;5.04;76.20;98893.94;5007026;28;20045;-64
2021/10/23 03:50:31;;;;;;;1.80;0.70;;;;;;;5.12;75.88;98901.81;4992304;28;20453;-64
2021/10/23 03:52:56;;;;;;;1.00;0.90;;;;;;;4.97;76.27;98887.72;4992328;28;20038;-64
2021/10/23 03:55:22;;;;;;;0.80;0.70;;;;;;;4.97;76.40;98903.53;4996092;28;20418;-65
2021/10/23 03:57:47;;;;;;;1.50;0.83;;;;;;;4.94;77.18;98901.25;5011037;28;20061;-64
2021/10/23 04:00:13;;;;;;;1.23;0.80;;;;;;;4.94;77.64;98914.44;4995867;28;20045;-64
2021/10/23 04:02:39;;;;;;;1.80;1.00;;;;;;;4.71;78.46;98893.25;4995753;28;20038;-65
2021/10/23 04:05:06;;;;;;;1.00;0.80;;;;;;;4.88;79.39;98928.28;4996103;28;20035;-63
2021/10/23 04:07:31;;;;;;;0.90;0.80;;;;;;;4.63;78.88;98888.84;4995797;28;20042;-64
2021/10/23 04:09:58;;;;;;;0.80;0.70;;;;;;;4.78;79.91;98930.31;4995831;28;20092;-65
2021/10/23 04:12:25;;;;;;;1.37;1.23;;;;;;;4.63;79.98;98917.84;4996012;28;20141;-65
2021/10/23 04:14:51;;;;;;;1.00;0.80;;;;;;;4.63;80.33;98923.13;4994381;28;20301;-64
2021/10/23 04:17:16;;;;;;;0.97;0.90;;;;;;;4.57;80.14;98934.31;4997924;28;20622;-64
2021/10/23 04:19:42;;;;;;;1.00;0.90;;;;;;;4.48;80.62;98932.72;4995701;28;20030;-64
2021/10/23 04:22:09;;;;;;;0.70;0.70;;;;;;;4.44;79.98;98939.31;4996190;28;20042;-64
2021/10/23 04:24:35;;;;;;;1.10;0.90;;;;;;;4.38;80.34;98942.63;4996163;28;20034;-65
2021/10/23 04:27:01;;;;;;;1.33;1.23;;;;;;;4.41;81.28;98944.09;5011043;28;20816;-65
2021/10/23 04:29:27;;;;;;;1.53;1.37;;;;;;;4.34;80.40;98938.69;4996210;28;20091;-65
2021/10/23 04:31:52;;;;;;;1.50;0.93;;;;;;;4.44;80.66;98949.84;4997556;28;20046;-64
2021/10/23 04:34:18;;;;;;;1.63;1.23;;;;;;;4.46;80.39;98960.22;4995461;28;20293;-65
2021/10/23 04:36:43;;;;;;;1.53;0.93;;;;;;;4.49;80.23;98965.97;4995324;28;20165;-63
2021/10/23 04:39:10;;;;;;;1.30;0.97;;;;;;;4.50;79.90;98970.25;4994093;28;20041;-64
2021/10/23 04:41:36;;;;;;;1.33;0.93;;;;;;;4.47;79.75;98965.31;4994969;28;20050;-64
2021/10/23 04:44:02;;;;;;;0.80;0.80;;;;;;;4.55;79.98;98972.41;4995209;28;20270;-63
2021/10/23 04:46:27;;;;;;;2.03;1.00;;;;;;;4.51;79.61;98971.91;4995294;28;20277;-64
2021/10/23 04:48:53;;;;;;;0.80;0.80;;;;;;;4.53;78.80;98980.47;4995566;28;20038;-65
2021/10/23 04:51:18;;;;;;;1.13;0.80;;;;;;;4.62;78.88;98989.19;4994965;28;20558;-64
2021/10/23 04:53:44;;;;;;;1.07;0.97;;;;;;;4.67;78.90;98997.44;4994955;28;20030;-63
2021/10/23 04:56:09;;;;;;;1.00;0.90;;;;;;;4.70;78.51;98985.72;4995017;28;20066;-64
2021/10/23 04:58:38;;;;;;;1.97;1.13;;;;;;;4.78;77.57;98996.25;4994830;28;20061;-63
2021/10/23 05:01:04;;;;;;;;;;;;;;;4.84;76.54;99008.75;4995368;28;20049;-64
2021/10/23 05:03:30;;;;;;;0.90;0.90;;;;;;;4.72;76.74;98994.28;4993361;28;19917;-63
2021/10/23 05:05:55;;;;;;;0.87;0.80;;;;;;;4.78;76.72;99014.72;4995038;28;20381;-65
2021/10/23 05:08:21;;;;;;;1.07;0.90;;;;;;;4.75;77.71;99015.88;4994803;28;20076;-65
2021/10/23 05:10:50;;;;;;;2.60;1.00;;;;;;;4.73;77.66;99017.03;4995028;28;20117;-62
2021/10/23 05:13:15;;;;;;;0.95;0.90;;;;;;;4.82;77.08;99031.84;4994693;28;20034;-64
2021/10/23 05:15:41;;;;;;;0.80;0.80;;;;;;;4.77;76.84;99023.63;4994859;28;20417;-64
2021/10/23 05:18:06;;;;;;;3.33;1.10;;;;;;;4.62;76.61;99032.19;4995071;28;20041;-65
2021/10/23 05:20:32;;;;;;;1.27;1.03;;;;;;;4.72;77.14;99041.75;4994941;28;20457;-65
2021/10/23 05:22:57;;;;;;;1.20;1.10;;;;;;;4.77;76.74;99050.81;4995396;28;20049;-65
2021/10/23 05:25:23;;;;;;;0.80;0.80;;;;;;;4.75;76.60;99042.25;4994583;28;20038;-65
2021/10/23 05:27:48;;;;;;;1.57;1.33;;;;;;;4.87;76.94;99051.44;4994660;28;20031;-64
2021/10/23 05:30:14;;;;;;;1.80;1.60;;;;;;;4.92;76.57;99048.31;4994210;28;20034;-65
2021/10/23 05:32:39;;;;;;;1.67;0.90;;;;;;;5.10;76.14;99070.03;4994873;28;20039;-64
2021/10/23 05:35:05;;;;;;;1.40;1.30;;;;;;;5.15;74.92;99075.63;4994530;28;20034;-64
2021/10/23 05:37:31;;;;;;;0.90;0.80;;;;;;;4.93;73.68;99065.81;4994358;28;20038;-64
2021/10/23 05:39:57;;;;;;;1.90;1.03;;;;;;;4.87;74.33;99079.63;5010307;28;20030;-65
2021/10/23 05:42:22;;;;;;;2.47;1.00;;;;;;;4.81;74.00;99094.31;4994644;28;20494;-65
2021/10/23 05:44:48;;;;;;;1.83;1.17;;;;;;;4.76;75.35;99109.00;4993977;28;20046;-64
2021/10/23 05:47:13;;;;;;;1.00;0.90;;;;;;;4.69;75.54;99102.75;4995013;28;20383;-68
2021/10/23 05:49:39;;;;;;;2.73;0.87;;;;;;;4.51;76.21;99109.00;4995521;28;20072;-64
2021/10/23 05:52:05;;;;;;;0.83;0.73;;;;;;;4.37;77.29;99090.38;4995027;28;20038;-63
2021/10/23 05:54:36;;;;;;;0.70;0.67;;;;;;;4.47;77.11;99120.84;4994391;28;20407;-66
2021/10/23 05:57:06;;;;;;;1.47;0.80;;;;;;;4.39;77.67;99120.84;4995292;28;20113;-64
2021/10/23 05:59:32;;;;;;;0.90;0.77;;;;;;;4.33;77.13;99119.66;4993690;28;20270;-64
2021/10/23 06:02:09;;;;;;;1.10;0.80;;;;;;;4.40;77.85;99126.94;4995156;28;20273;-65
2021/10/23 06:04:36;;;;;;;3.50;1.10;;;;;;;4.35;77.86;99122.16;4994942;28;20745;-64
2021/10/23 06:07:01;;;;;;;2.10;1.43;;;;;;;4.39;77.65;99131.41;4994068;28;20653;-65
2021/10/23 06:09:27;;;;;;;4.60;1.47;;;;;;;4.46;77.87;99136.84;4995179;28;20281;-69
2021/10/23 06:11:59;;;;;;;6.60;2.20;;;;;;;4.48;77.46;99151.50;4994884;28;20062;-67
2021/10/23 06:14:29;;;;;;;2.83;1.40;;;;;;;4.44;77.57;99144.09;5009998;28;20161;-68
2021/10/23 06:16:55;;;;;;;4.87;1.43;;;;;;;4.48;76.69;99161.22;4995026;28;20381;-69
2021/10/23 06:19:20;;;;;;;2.43;1.20;;;;;;;4.51;77.10;99159.06;4995098;28;20109;-68
2021/10/23 06:21:46;;;;;;;3.07;1.43;;;;;;;4.57;77.39;99155.78;4994153;28;20054;-69
2021/10/23 06:24:11;;;;;;;10.33;2.83;;;;;;;4.71;77.04;99166.69;4993328;28;20046;-68
2021/10/23 06:26:36;;;;;;;5.40;1.50;;;;;;;4.71;77.79;99177.25;4992684;28;20038;-67
2021/10/23 06:29:02;;;;;;;3.57;1.33;;;;;;;4.67;77.15;99182.03;4993459;28;20118;-68
2021/10/23 06:31:28;;;;;;;2.90;1.40;;;;;;;4.73;77.68;99188.44;5008223;28;20038;-70
2021/10/23 06:33:53;;;;;;;5.43;1.53;;;;;;;4.70;77.83;99186.13;4993162;28;20045;-67
2021/10/23 06:36:18;;;;;;;7.37;1.63;;;;;;;4.79;77.34;99188.59;4991827;28;20046;-66
2021/10/23 06:38:44;;;;;;;5.30;1.20;;;;;;;4.81;76.77;99188.44;4991641;28;20070;-65
2021/10/23 06:41:09;;;;;;;2.77;1.40;;;;;;;4.94;76.45;99199.34;4992990;28;20038;-65
2021/10/23 06:43:35;;;;;;;3.20;1.67;;;;;;;5.00;76.44;99209.22;4992515;28;20046;-63
2021/10/23 06:46:01;;;;;;;3.30;1.77;;;;;;;5.06;75.78;99218.31;4992825;28;20050;-64
2021/10/23 06:48:26;;;;;;;2.17;1.50;;;;;;;5.04;75.58;99213.19;4992874;28;20084;-67
2021/10/23 06:50:52;;;;;;;2.70;1.33;;;;;;;5.06;75.28;99219.13;4992848;28;20034;-64
2021/10/23 06:53:17;;;;;;;1.70;1.60;;;;;;;5.16;75.86;99232.97;4992473;28;20038;-66
2021/10/23 06:55:42;;;;;;;5.03;2.00;;;;;;;5.19;76.08;99237.91;5008140;28;20041;-70
2021/10/23 06:58:08;;;;;;;3.33;1.90;;;;;;;5.14;75.81;99223.56;4993053;28;20038;-74
2021/10/23 07:00:33;;;;;;;2.60;2.37;;;;;;;5.26;76.23;99238.09;4992941;28;20124;-68
2021/10/23 07:02:59;;;;;;;3.53;1.60;;;;;;;5.31;75.67;99242.88;4992797;28;20520;-64
2021/10/23 07:05:26;;;;;;;2.30;1.77;;;;;;;5.27;75.06;99237.09;4993208;28;20034;-70
2021/10/23 07:07:52;;;;;;;3.33;1.90;;;;;;;5.34;75.92;99242.53;4993114;28;20545;-67
2021/10/23 07:10:18;;;;;;;2.27;2.07;;;;;;;5.35;75.90;99265.31;4993014;28;20915;-68
2021/10/23 07:12:45;;;;;;;3.67;2.57;;;;;;;5.29;74.59;99267.63;4992901;28;20062;-71
2021/10/23 07:15:11;;;;;;;6.73;2.17;;;;;;;5.29;75.74;99266.81;4992704;28;20053;-68
2021/10/23 07:17:37;;;;;;;8.40;2.47;;;;;;;4.84;76.01;99206.56;4992486;28;20038;-64
2021/10/23 07:20:04;;;;;;;2.53;1.83;;;;;;;5.13;75.06;99266.78;4992784;28;20126;-66
2021/10/23 07:22:29;;;;;;;7.37;4.27;;;;;;;5.18;75.48;99278.50;4992648;28;20035;-66
2021/10/23 07:24:55;;;;;;;2.30;1.30;;;;;;;5.31;73.98;99285.13;4989390;28;20031;-65
2021/10/23 07:27:20;;;;;;;7.13;1.73;;;;;;;5.46;74.78;99294.00;4994834;28;20036;-69
2021/10/23 07:29:46;;;;;;;1.87;1.33;;;;;;;5.54;73.96;99296.66;5012381;28;20401;-71
2021/10/23 07:32:11;;;;;;;3.43;1.50;;;;;;;5.63;73.49;99308.03;4995956;28;20103;-63
2021/10/23 07:34:37;;;;;;;2.60;1.37;;;;;;;5.63;73.26;99311.50;4997293;28;20042;-63
2021/10/23 07:37:02;;;;;;;2.60;1.77;;;;;;;5.74;73.05;99329.66;4996204;28;20486;-68
2021/10/23 07:39:28;;;;;;;5.10;1.63;;;;;;;5.78;74.00;99331.00;4996411;28;20042;-67
2021/10/23 07:41:54;;;;;;;2.87;1.60;;;;;;;5.82;72.03;99332.31;4996883;28;20447;-72
2021/10/23 07:44:19;;;;;;;7.97;3.73;;;;;;;5.98;71.27;99333.28;5011509;28;20422;-63
2021/10/23 07:46:45;;;;;;;5.33;2.30;;;;;;;6.03;70.32;99339.72;4996136;28;20053;-66
2021/10/23 07:49:11;;;;;;;8.20;2.43;;;;;;;6.09;70.08;99341.72;4996353;28;20034;-65
2021/10/23 07:51:38;;;;;;;3.07;1.80;;;;;;;5.95;70.48;99344.19;4996110;28;20038;-66
2021/10/23 07:54:04;;;;;;;1.43;1.33;;;;;;;5.94;70.53;99356.59;4995964;28;20065;-66
2021/10/23 07:56:32;;;;;;;3.17;1.67;;;;;;;5.78;70.71;99336.28;4994552;28;20470;-65
2021/10/23 07:58:57;;;;;;;4.83;1.80;;;;;;;5.85;72.09;99362.84;4994494;28;20045;-72
2021/10/23 08:01:23;;;;;;;3.67;1.90;;;;;;;5.86;71.23;99365.31;4995141;28;20056;-73
2021/10/23 08:03:48;;;;;;;3.83;2.07;;;;;;;5.99;70.69;99374.56;4996273;28;20026;-72
2021/10/23 08:06:14;;;;;;;7.43;2.40;;;;;;;5.97;70.36;99366.00;4996486;28;20042;-72
2021/10/23 08:08:39;;;;;;;2.30;2.10;;;;;;;6.07;69.89;99385.13;4996495;28;20386;-72
2021/10/23 08:11:06;;;;;;;5.33;1.87;;;;;;;6.05;69.80;99387.13;4995842;28;20410;-70
2021/10/23 08:13:33;;;;;;;2.33;2.13;;;;;;;6.04;70.29;99399.50;4995851;28;20062;-75
2021/10/23 08:16:00;;;;;;;3.17;2.53;;;;;;;5.86;70.37;99370.59;4996545;28;20049;-76
2021/10/23 08:18:26;;;;;;;3.90;2.77;;;;;;;6.08;70.84;99410.59;4996508;28;20038;-71
2021/10/23 08:20:52;;;;;;;2.50;2.30;;;;;;;6.08;68.32;99411.41;4996138;28;20047;-74
2021/10/23 08:23:17;;;;;;;3.77;2.70;;;;;;;5.96;67.80;99419.84;4994639;28;20033;-73
2021/10/23 08:25:43;;;;;;;3.57;2.70;;;;;;;5.65;69.67;99394.03;5010752;28;20042;-74
2021/10/23 08:28:08;;;;;;;4.93;2.50;;;;;;;5.73;69.87;99422.28;4995603;28;20061;-71
2021/10/23 08:30:35;;;;;;;2.67;1.93;;;;;;;5.74;69.38;99448.53;4996792;28;20387;-67
2021/10/23 08:33:01;;;;;;;2.43;2.20;;;;;;;5.68;69.69;99440.44;4996559;28;20169;-68
2021/10/23 08:35:27;;;;;;;3.20;2.40;;;;;;;5.62;69.99;99457.75;4995839;28;20132;-68
2021/10/23 08:37:54;;;;;;;3.50;2.27;;;;;;;5.47;69.84;99454.91;5009735;28;20067;-67
2021/10/23 08:40:21;;;;;;;2.53;1.83;;;;;;;5.42;69.38;99449.28;4995010;28;20038;-71
2021/10/23 08:42:55;;;;;;;2.40;2.20;;;;;;;5.50;69.77;99469.63;4994286;28;20093;-67
2021/10/23 08:45:24;;;;;;;2.23;1.80;;;;;;;5.49;69.22;99481.16;4985126;28;20537;-66
2021/10/23 08:47:50;;;;;;;3.97;2.00;;;;;;;5.39;69.99;99476.03;4994058;28;20066;-69
2021/10/23 08:50:18;;;;;;;4.80;2.37;;;;;;;5.55;69.96;99481.34;4994008;28;20085;-70
2021/10/23 08:52:46;;;;;;;2.13;1.88;;;;;;;5.67;68.73;99460.72;4995399;28;20044;-69
2021/10/23 08:58:52;;;;;;;2.00;1.80;;;;;;;5.77;67.42;99450.84;4995035;28;20138;-71
2021/10/23 09:01:18;;;;;;;7.37;3.10;;;;;;;6.06;66.59;99490.03;4990083;28;20031;-67
2021/10/23 09:03:56;;;;;;;5.47;3.07;;;;;;;6.20;67.38;99501.78;5002106;28;20041;-64
2021/10/23 09:06:37;;;;;;;5.55;2.42;;;;;;;6.22;66.61;99513.00;4993808;28;20038;-65
2021/10/23 09:13:37;;;;;;;2.30;2.10;;;;;;;6.42;66.90;99543.44;4985816;28;20077;-67
2021/10/23 09:28:51;;;;;;;2.20;2.00;;;;;;;6.25;66.41;99573.50;4986430;28;20494;-65
2021/10/23 09:31:26;;;;;;;3.17;2.00;;;;;;;6.03;65.71;99571.47;4971147;28;20613;-65
2021/10/23 09:34:00;;;;;;;2.70;2.00;;;;;;;5.95;65.26;99582.03;4992639;28;20101;-65
2021/10/23 09:36:26;;;;;;;2.40;1.77;;;;;;;5.84;66.17;99573.38;4997181;28;20046;-67
2021/10/23 09:39:00;;;;;;;4.77;2.33;;;;;;;5.97;66.35;99590.63;4985081;28;20050;-69
2021/10/23 09:41:29;;;;;;;4.83;3.57;;;;;;;5.92;65.86;99585.00;4995035;28;20042;-77
2021/10/23 09:44:24;;;;;;;2.60;2.40;;;;;;;6.02;66.13;99598.88;4993685;28;20053;-70
2021/10/23 09:46:53;;;;;;;5.77;2.60;;;;;;;5.94;65.77;99583.00;4907827;28;20088;-73
2021/10/23 09:49:20;;;;;;;;;;;;;;;6.26;66.13;99606.88;4994581;28;20031;-76
2021/10/23 09:52:17;;;;;;;8.13;3.60;;;;;;;6.37;66.18;99617.16;4977079;28;19917;-73
2021/10/23 09:54:42;;;;;;;7.30;3.40;;;;;;;6.33;66.33;99615.78;4990224;28;20668;-67
2021/10/23 09:57:29;;;;;;;4.00;3.60;;;;;;;6.32;66.48;99619.44;4994692;28;20030;-75
2021/10/23 10:00:11;;;;;;;8.67;3.77;;;;;;;6.26;66.84;99617.44;4993040;28;20482;-74
2021/10/23 10:02:47;;;;;;;4.57;3.17;;;;;;;6.28;66.42;99623.41;4992760;28;20077;-74
2021/10/23 10:05:13;;;;;;;4.20;3.10;;;;;;;6.19;66.45;99629.66;4993906;28;20489;-73
2021/10/23 10:07:57;;;;;;;7.53;4.07;;;;;;;5.83;66.71;99555.88;4992879;28;20038;-75
2021/10/23 10:10:50;;;;;;;7.43;3.47;;;;;;;6.32;66.36;99648.50;4976125;28;20058;-75
2021/10/23 10:13:19;;;;;;;8.80;3.50;;;;;;;6.08;66.33;99608.84;4975148;28;20082;-76
2021/10/23 10:16:02;;;;;;;5.13;3.55;;;;;;;6.21;66.99;99639.09;4974273;28;20046;-73
2021/10/23 10:18:28;;;;;;;6.93;3.43;;;;;;;6.25;67.30;99660.72;4991628;28;20405;-64
2021/10/23 10:20:58;;;;;;;4.17;3.50;;;;;;;6.24;67.60;99674.94;4993511;28;20118;-68
2021/10/23 10:24:00;;;;;;;6.40;4.50;;;;;;;6.21;68.09;99669.97;4973817;28;20589;-71
2021/10/23 10:26:29;;;;;;;5.47;3.00;;;;;;;6.02;68.09;99672.88;5001839;28;20042;-66
2021/10/23 10:29:19;;;;;;;;;;;;;;;6.10;67.83;99684.34;4997088;28;20048;-68
2021/10/23 10:32:28;;;;;;;5.77;3.33;;;;;;;6.15;68.06;99684.69;4975743;28;19918;-69
2021/10/23 10:42:40;;;;;;;7.20;4.43;;;;;;;5.75;68.77;99679.19;4992106;28;20050;-66
2021/10/23 10:44:11;;;;;;;4.82;3.15;;;;;;;5.78;69.86;99698.22;4991213;28;20066;-70
2021/10/23 10:47:03;;;;;;;4.13;2.80;;;;;;;5.66;70.50;99701.25;4992384;28;20038;-67
2021/10/23 10:49:50;;;;;;;9.90;5.30;;;;;;;5.90;70.54;99728.69;4995076;28;20529;-67
2021/10/23 10:52:56;;;;;;;3.03;2.60;;;;;;;5.97;69.32;99735.97;4992447;28;20062;-63
2021/10/23 10:55:22;;;;;;;2.93;2.47;;;;;;;5.81;69.31;99724.31;5003885;28;20066;-68
2021/10/23 10:58:06;;;;;;;3.67;2.60;;;;;;;5.53;71.08;99717.53;4993418;28;20031;-71
2021/10/23 11:00:46;;;;;;;5.67;2.60;;;;;;;5.73;71.38;99761.22;4991223;28;20581;-71
2021/10/23 11:04:03;;;;;;;4.20;2.67;;;;;;;5.80;71.49;99764.94;4990359;28;20073;-70
2021/10/23 11:06:32;;;;;;;4.47;2.87;;;;;;;5.71;72.69;99778.22;4905590;29;20473;-67
2021/10/23 11:09:33;;;;;;;5.70;3.43;;;;;;;5.69;73.85;99790.75;4906928;29;20032;-67
2021/10/23 11:14:57;;;;;;;9.30;4.80;;;;;;;5.56;74.33;99807.03;4991353;28;20458;-68
2021/10/23 11:17:24;;;;;;;3.70;3.33;;;;;;;5.31;74.84;99786.69;4992028;28;20130;-70
2021/10/23 11:19:52;;;;;;;4.10;3.67;;;;;;;5.37;75.19;99807.19;4994192;28;20042;-69
2021/10/23 11:22:32;;;;;;;4.80;4.32;;;;;;;5.34;76.16;99807.50;4977710;28;20035;-71
2021/10/23 11:25:16;;;;;;;4.77;4.13;;;;;;;5.25;75.66;99825.09;4990761;28;20046;-69
2021/10/23 11:27:41;;;;;;;7.17;5.10;;;;;;;5.12;77.28;99825.44;4986211;28;20508;-64
2021/10/23 11:30:26;;;;;;;5.07;3.47;;;;;;;5.03;77.94;99831.63;5002125;28;20045;-67
2021/10/23 11:32:54;;;;;;;3.63;3.30;;;;;;;5.02;77.43;99835.25;4993361;28;20094;-74
2021/10/23 11:35:31;;;;;;;3.03;2.13;;;;;;;4.98;77.35;99841.81;4975418;28;20034;-69
2021/10/23 11:37:56;;;;;;;2.40;1.83;;;;;;;4.99;77.84;99861.94;4974867;28;20080;-69
2021/10/23 11:40:22;;;;;;;3.63;1.87;;;;;;;4.97;77.45;99856.00;4993180;28;20069;-71
2021/10/23 11:42:55;;;;;;;2.00;1.80;;;;;;;4.71;76.70;99834.75;4974535;28;20026;-78
2021/10/23 11:45:40;;;;;;;1.87;1.40;;;;;;;4.78;76.99;99858.72;4975184;28;20088;-74
2021/10/23 11:48:08;;;;;;;1.70;1.60;;;;;;;4.66;77.41;99835.22;4992318;28;20038;-77
2021/10/23 11:51:01;;;;;;;1.90;1.43;;;;;;;4.76;77.03;99881.78;4993248;28;20054;-70
2021/10/23 11:53:31;;;;;;;2.47;1.33;;;;;;;4.54;78.03;99880.34;4974476;28;20034;-72
2021/10/23 11:56:03;;;;;;;3.73;1.27;;;;;;;4.59;76.93;99899.22;4993392;28;20823;-71
2021/10/23 11:58:41;;;;;;;1.33;1.23;;;;;;;4.62;77.18;99905.03;4975272;28;20270;-76
2021/10/23 12:01:15;;;;;;;2.80;1.00;;;;;;;4.49;76.17;99901.88;4992522;28;20265;-68
2021/10/23 12:03:47;;;;;;;2.60;1.20;;;;;;;4.33;76.67;99875.28;4994332;28;20352;-65
2021/10/23 12:06:38;;;;;;;2.00;1.40;;;;;;;4.53;76.06;99908.53;4994280;28;20258;-71
2021/10/23 12:09:20;;;;;;;1.20;0.90;;;;;;;4.66;76.52;99924.06;4991228;28;20273;-68
2021/10/23 12:12:05;;;;;;;1.90;1.30;;;;;;;4.66;76.11;99940.69;4990592;28;20293;-69
2021/10/23 12:14:30;;;;;;;3.03;1.27;;;;;;;4.58;76.00;99930.03;4988675;28;20297;-67
2021/10/23 12:16:57;;;;;;;1.63;1.20;;;;;;;4.52;76.38;99938.50;4992379;28;20380;-71
2021/10/23 12:19:33;;;;;;;1.10;1.00;;;;;;;4.43;76.10;99934.13;4979567;28;20037;-70